Time;durP1;ratioP1;P1;durP2;ratioP2;P2;SDS_P1;SDS_P2;PMS_P1;PMS_P2;Temp;Humidity;BMP_temperature;BMP_pressure;BME280_temperature;BME280_humidity;BME280_pressure;Samples;Min_cycle;Max_cycle;Signal;HPM_P1;HPM_P2
2022/05/04 00:00:23;;;;;;;1.77;1.10;;;;;;;11.75;60.46;99170.99;1740819;81;21111;-50
2022/05/04 00:02:49;;;;;;;2.27;1.00;;;;;;;11.70;60.59;99175.78;1741276;81;21093;-48
2022/05/04 00:05:16;;;;;;;1.32;1.00;;;;;;;11.64;60.81;99177.52;1740641;81;21053;-52
2022/05/04 00:07:42;;;;;;;1.32;0.82;;;;;;;11.56;61.06;99187.04;1742835;81;21143;-49
2022/05/04 00:10:09;;;;;;;1.45;0.90;;;;;;;11.48;61.26;99187.98;1744581;81;21095;-48
2022/05/04 00:12:35;;;;;;;2.95;1.65;;;;;;;11.39;61.57;99190.75;1710044;81;21135;-48
2022/05/04 00:15:02;;;;;;;1.82;0.78;;;;;;;11.30;61.92;99189.48;1742555;81;21294;-50
2022/05/04 00:17:29;;;;;;;3.45;0.80;;;;;;;11.25;62.26;99186.66;1740898;81;21056;-47
2022/05/04 00:19:56;;;;;;;1.30;1.00;;;;;;;11.18;62.36;99186.64;1738361;81;21038;-48
2022/05/04 00:22:22;;;;;;;1.27;0.90;;;;;;;11.17;62.45;99188.94;1740574;81;21678;-46
2022/05/04 00:24:49;;;;;;;4.57;1.03;;;;;;;11.16;62.70;99188.07;1743309;81;21135;-47
2022/05/04 00:27:15;;;;;;;3.03;1.00;;;;;;;11.17;62.78;99197.89;1740659;81;21354;-48
2022/05/04 00:29:43;;;;;;;3.93;1.00;;;;;;;11.17;62.92;99197.89;1741639;81;21573;-48
2022/05/04 00:32:12;;;;;;;1.00;0.90;;;;;;;11.16;62.87;99198.84;1741353;79;21071;-49
2022/05/04 00:34:39;;;;;;;2.23;1.17;;;;;;;11.16;63.03;99200.19;1744074;81;21064;-49
2022/05/04 00:37:06;;;;;;;3.20;1.07;;;;;;;11.15;63.18;99207.02;1743109;81;20930;-51
2022/05/04 00:39:33;;;;;;;1.87;0.97;;;;;;;11.12;63.34;99200.48;1745045;81;21076;-53
2022/05/04 00:42:17;;;;;;;4.50;1.20;;;;;;;11.09;63.62;99212.30;1742872;81;21107;-50
2022/05/04 00:44:45;;;;;;;1.40;1.10;;;;;;;11.06;63.70;99207.08;1740410;81;21076;-49
2022/05/04 00:47:12;;;;;;;1.27;1.00;;;;;;;11.03;63.79;99211.31;1746786;81;21049;-49
2022/05/04 00:49:40;;;;;;;2.67;1.07;;;;;;;11.01;63.76;99211.88;1747884;81;20937;-49
2022/05/04 00:52:07;;;;;;;3.23;1.67;;;;;;;10.97;63.47;99210.34;1746740;81;21338;-49
2022/05/04 00:54:35;;;;;;;2.53;1.00;;;;;;;10.96;63.52;99209.47;1742817;81;21017;-49
2022/05/04 00:57:02;;;;;;;1.13;0.83;;;;;;;10.96;63.69;99218.02;1743665;81;21020;-49
2022/05/04 00:59:32;;;;;;;2.47;1.27;;;;;;;10.92;63.42;99217.32;1741407;81;21033;-48
2022/05/04 01:01:58;;;;;;;3.40;1.00;;;;;;;10.92;63.04;99213.75;1742732;81;21960;-49
2022/05/04 01:04:25;;;;;;;1.77;0.90;;;;;;;10.94;62.46;99216.76;1740480;81;21879;-48
2022/05/04 01:06:52;;;;;;;1.50;0.90;;;;;;;10.98;62.42;99217.43;1742890;81;21625;-47
2022/05/04 01:09:18;;;;;;;3.30;1.20;;;;;;;11.03;62.00;99222.56;1740345;81;21115;-46
2022/05/04 01:11:46;;;;;;;1.27;0.90;;;;;;;11.06;61.96;99221.89;1740031;81;22177;-47
2022/05/04 01:14:13;;;;;;;2.77;0.80;;;;;;;11.07;61.46;99224.97;1738392;81;21578;-47
2022/05/04 01:16:43;;;;;;;1.10;1.00;;;;;;;11.08;61.57;99225.84;1742270;81;21108;-46
2022/05/04 01:19:12;;;;;;;1.67;1.00;;;;;;;11.05;61.70;99232.30;1744555;81;21285;-47
2022/05/04 01:21:38;;;;;;;1.67;1.00;;;;;;;11.00;61.15;99229.86;1745155;81;20989;-49
2022/05/04 01:24:07;;;;;;;3.30;1.03;;;;;;;10.98;60.74;99233.59;1741753;81;20938;-47
2022/05/04 01:26:33;;;;;;;1.93;1.40;;;;;;;10.97;60.31;99231.37;1743002;81;21060;-48
2022/05/04 01:29:01;;;;;;;5.33;1.33;;;;;;;10.97;60.32;99239.95;1740493;81;21441;-49
2022/05/04 01:31:28;;;;;;;1.60;0.90;;;;;;;10.95;59.84;99233.78;1746040;81;21140;-46
2022/05/04 01:33:55;;;;;;;4.73;1.20;;;;;;;10.94;59.54;99237.44;1742603;81;21108;-47
2022/05/04 01:36:21;;;;;;;2.17;0.93;;;;;;;10.93;59.61;99234.34;1743051;81;22538;-48
2022/05/04 01:38:48;;;;;;;2.70;1.10;;;;;;;10.92;59.63;99232.60;1742632;80;21510;-50
2022/05/04 01:43:59;;;;;;;2.07;0.90;;;;;;;10.89;59.24;99233.64;1755856;80;21483;-47
2022/05/04 01:46:26;;;;;;;2.07;1.30;;;;;;;10.87;59.27;99231.54;1759382;80;21055;-48
2022/05/04 01:48:54;;;;;;;3.17;1.20;;;;;;;10.86;59.25;99231.14;1755838;80;21079;-46
2022/05/04 01:51:20;;;;;;;2.40;1.20;;;;;;;10.83;59.35;99229.09;1737443;81;21088;-47
2022/05/04 01:53:47;;;;;;;3.20;1.00;;;;;;;10.80;59.38;99238.72;1734136;81;21778;-49
2022/05/04 01:56:13;;;;;;;2.27;1.40;;;;;;;10.76;59.64;99237.14;1738249;81;21044;-49
2022/05/04 01:58:42;;;;;;;2.13;0.97;;;;;;;10.72;59.64;99249.89;1740314;81;21345;-46
2022/05/04 02:01:08;;;;;;;1.83;1.00;;;;;;;10.68;59.96;99246.13;1740558;81;21144;-51
2022/05/04 02:03:34;;;;;;;3.53;1.00;;;;;;;10.60;60.00;99247.44;1737446;81;21056;-51
2022/05/04 02:06:01;;;;;;;6.80;1.03;;;;;;;10.53;59.80;99247.39;1737989;81;21613;-50
2022/05/04 02:08:28;;;;;;;4.03;0.97;;;;;;;10.48;60.10;99257.52;1737833;81;21060;-51
2022/05/04 02:10:55;;;;;;;3.13;1.00;;;;;;;10.42;59.98;99263.25;1738116;79;21103;-50
2022/05/04 02:13:21;;;;;;;3.10;0.77;;;;;;;10.36;60.06;99264.95;1736565;81;21067;-51
2022/05/04 02:15:47;;;;;;;1.67;0.90;;;;;;;10.32;59.86;99270.09;1734871;81;21088;-50
2022/05/04 02:18:14;;;;;;;1.13;1.00;;;;;;;10.31;59.93;99275.55;1736385;81;21128;-50
2022/05/04 02:20:41;;;;;;;2.40;0.90;;;;;;;10.27;59.63;99274.86;1734115;81;21040;-51
2022/05/04 02:23:07;;;;;;;2.97;0.87;;;;;;;10.25;59.63;99278.11;1735217;81;21100;-50
2022/05/04 02:25:34;;;;;;;1.57;0.90;;;;;;;10.22;59.40;99278.27;1735880;81;21147;-51
2022/05/04 02:28:01;;;;;;;1.40;0.80;;;;;;;10.20;59.33;99277.03;1737115;81;21081;-51
2022/05/04 02:30:27;;;;;;;2.47;1.03;;;;;;;10.21;59.47;99279.20;1735751;81;21741;-51
2022/05/04 02:32:54;;;;;;;2.80;0.90;;;;;;;10.19;59.65;99279.31;1736093;81;21602;-50
2022/05/04 02:38:05;;;;;;;;;;;;;;;10.12;59.97;99283.23;1713241;81;21391;-50
2022/05/04 02:40:32;;;;;;;1.30;0.90;;;;;;;10.07;60.20;99282.62;1734995;81;20230;-51
2022/05/04 02:42:58;;;;;;;2.83;1.70;;;;;;;9.98;60.18;99287.14;1737333;81;22088;-50
2022/05/04 02:45:24;;;;;;;4.40;1.00;;;;;;;9.93;60.08;99291.91;1735209;81;21493;-51
2022/05/04 02:47:51;;;;;;;3.57;1.27;;;;;;;9.90;60.13;99297.44;1735529;81;21061;-50
2022/05/04 02:50:18;;;;;;;5.17;1.73;;;;;;;9.88;60.29;99304.23;1736343;81;20898;-50
2022/05/04 02:52:44;;;;;;;3.77;1.73;;;;;;;9.86;60.36;99308.84;1737913;81;21660;-51
2022/05/04 02:55:11;;;;;;;2.73;1.20;;;;;;;9.81;60.24;99303.29;1737327;81;21147;-50
2022/05/04 02:57:38;;;;;;;2.93;1.20;;;;;;;9.77;60.14;99307.97;1738647;81;21098;-51
2022/05/04 03:00:06;;;;;;;1.63;1.30;;;;;;;9.76;59.97;99304.02;1736520;81;21060;-51
2022/05/04 03:02:32;;;;;;;2.00;1.00;;;;;;;9.78;60.10;99308.34;1735420;81;21353;-50
2022/05/04 03:05:04;;;;;;;4.23;1.20;;;;;;;9.81;59.96;99312.22;1740059;81;21076;-50
2022/05/04 03:07:31;;;;;;;4.37;1.17;;;;;;;9.82;59.97;99315.78;1739486;81;21199;-50
2022/05/04 03:09:58;;;;;;;1.50;0.83;;;;;;;9.83;59.97;99313.02;1738752;79;21601;-51
2022/05/04 03:12:25;;;;;;;3.43;1.00;;;;;;;9.83;60.06;99314.37;1738106;81;21065;-50
2022/05/04 03:14:52;;;;;;;1.93;1.07;;;;;;;9.84;59.96;99317.92;1738823;81;20985;-50
2022/05/04 03:17:18;;;;;;;4.10;0.90;;;;;;;9.86;60.01;99320.06;1734234;81;21057;-51
2022/05/04 03:19:44;;;;;;;6.50;1.10;;;;;;;9.85;59.87;99333.11;1742085;81;21735;-51
2022/05/04 03:22:13;;;;;;;3.00;1.10;;;;;;;9.88;59.84;99334.27;1738987;81;21323;-50
2022/05/04 03:24:39;;;;;;;2.20;1.17;;;;;;;9.90;59.85;99333.73;1738099;81;21644;-51
2022/05/04 03:27:07;;;;;;;1.50;0.90;;;;;;;9.92;59.83;99336.34;1741138;81;21064;-51
2022/05/04 03:29:34;;;;;;;4.27;0.90;;;;;;;9.95;59.66;99338.88;1747198;81;21039;-50
2022/05/04 03:32:00;;;;;;;5.00;1.00;;;;;;;9.97;59.49;99344.55;1736072;81;21342;-50
2022/05/04 03:34:27;;;;;;;2.27;1.00;;;;;;;10.01;59.24;99346.14;1737146;81;21041;-51
2022/05/04 03:36:54;;;;;;;6.00;0.90;;;;;;;10.05;59.09;99353.08;1740669;81;21059;-51
2022/05/04 03:39:21;;;;;;;4.67;1.43;;;;;;;10.10;59.02;99352.39;1737197;81;21416;-50
2022/05/04 03:41:47;;;;;;;2.07;0.83;;;;;;;10.14;58.93;99356.64;1739168;81;20887;-50
2022/05/04 03:44:13;;;;;;;1.70;0.87;;;;;;;10.19;58.47;99355.10;1742251;81;21083;-50
2022/05/04 03:46:51;;;;;;;2.83;0.80;;;;;;;10.23;58.46;99362.04;1742246;81;20953;-50
2022/05/04 03:49:22;;;;;;;2.60;0.90;;;;;;;10.27;58.22;99364.98;1742315;81;20878;-50
2022/05/04 03:51:49;;;;;;;1.47;1.00;;;;;;;10.31;57.99;99365.66;1740847;81;20899;-50
2022/05/04 03:54:16;;;;;;;2.70;1.13;;;;;;;10.33;57.97;99371.84;1738781;81;20973;-51
2022/05/04 03:56:42;;;;;;;3.13;0.83;;;;;;;10.33;57.90;99376.75;1737385;81;21704;-50
2022/05/04 03:59:09;;;;;;;4.13;1.10;;;;;;;10.37;57.78;99376.13;1741493;81;20906;-50
2022/05/04 04:01:36;;;;;;;4.00;1.20;;;;;;;10.37;57.62;99374.30;1741901;81;20973;-50
2022/05/04 04:04:03;;;;;;;2.30;0.87;;;;;;;10.44;57.67;99378.88;1740930;81;20989;-50
2022/05/04 04:06:32;;;;;;;1.87;1.00;;;;;;;10.54;57.70;99381.47;1745119;81;21001;-51
2022/05/04 04:08:58;;;;;;;3.80;0.93;;;;;;;10.70;57.35;99380.16;1746413;81;21353;-50
2022/05/04 04:11:24;;;;;;;2.90;1.20;;;;;;;10.88;57.04;99367.91;1741063;81;20941;-50
2022/05/04 04:13:51;;;;;;;3.63;0.97;;;;;;;11.16;56.73;99381.15;1737922;81;21044;-50
2022/05/04 04:16:17;;;;;;;1.83;0.90;;;;;;;11.40;55.96;99377.05;1737439;81;20918;-50
2022/05/04 04:18:44;;;;;;;5.85;0.95;;;;;;;11.63;55.63;99382.48;1740725;81;21009;-52
2022/05/04 04:23:55;;;;;;;4.58;0.80;;;;;;;11.93;53.98;99378.48;1739558;81;20953;-51
2022/05/04 04:26:21;;;;;;;2.00;0.83;;;;;;;11.96;53.96;99385.05;1740169;81;20969;-51
2022/05/04 04:28:47;;;;;;;3.00;0.90;;;;;;;11.94;53.40;99386.48;1739973;81;21542;-51
2022/05/04 04:31:14;;;;;;;1.27;0.70;;;;;;;11.90;53.62;99393.03;1735735;81;21053;-51
2022/05/04 04:33:40;;;;;;;1.40;1.00;;;;;;;12.01;53.50;99390.55;1734655;80;22093;-50
2022/05/04 04:36:08;;;;;;;2.58;0.80;;;;;;;12.05;53.52;99393.47;1746540;80;21138;-52
2022/05/04 04:38:34;;;;;;;1.75;0.90;;;;;;;12.05;53.23;99391.25;1748869;80;21075;-51
2022/05/04 04:41:01;;;;;;;1.95;0.90;;;;;;;12.02;53.07;99390.94;1752314;80;21032;-50
2022/05/04 04:43:27;;;;;;;2.98;0.70;;;;;;;11.98;53.27;99393.92;1755511;80;22483;-52
2022/05/04 04:45:54;;;;;;;3.12;0.78;;;;;;;11.93;53.49;99395.53;1739164;81;21139;-51
2022/05/04 04:48:21;;;;;;;2.72;0.90;;;;;;;11.93;53.64;99394.18;1742667;81;21383;-51
2022/05/04 04:50:47;;;;;;;2.52;0.80;;;;;;;11.95;53.79;99399.48;1766430;80;20897;-51
2022/05/04 04:53:14;;;;;;;2.15;0.90;;;;;;;11.95;53.51;99394.97;1739379;81;21652;-50
2022/05/04 04:55:41;;;;;;;1.72;0.80;;;;;;;11.97;53.74;99400.28;1764425;80;21039;-52
2022/05/04 04:58:07;;;;;;;2.72;0.90;;;;;;;11.99;53.84;99401.91;1739587;81;22234;-51
2022/05/04 05:00:34;;;;;;;1.15;0.80;;;;;;;12.07;53.80;99407.73;1766220;80;21290;-52
2022/05/04 05:03:02;;;;;;;4.17;0.82;;;;;;;12.15;53.64;99403.70;1765255;80;21047;-51
2022/05/04 05:05:28;;;;;;;1.22;0.70;;;;;;;12.20;53.69;99406.98;1745554;81;21060;-52
2022/05/04 05:07:55;;;;;;;2.15;0.80;;;;;;;12.29;53.48;99402.38;1765808;80;21107;-51
2022/05/04 05:10:21;;;;;;;1.12;0.70;;;;;;;12.38;53.31;99404.52;1741360;81;21097;-51
2022/05/04 05:12:51;;;;;;;4.37;0.72;;;;;;;12.45;53.03;99404.05;1749562;80;21133;-51
2022/05/04 05:18:03;;;;;;;3.52;0.70;;;;;;;12.55;52.49;99408.89;1753039;80;21356;-51
2022/05/04 05:20:30;;;;;;;2.17;0.60;;;;;;;12.63;52.51;99414.68;1756542;80;22269;-51
2022/05/04 05:22:58;;;;;;;1.30;0.70;;;;;;;12.70;52.22;99414.68;1738735;81;21137;-51
2022/05/04 05:25:25;;;;;;;2.20;0.70;;;;;;;12.75;52.23;99409.41;1736253;81;20964;-52
2022/05/04 05:27:51;;;;;;;0.80;0.60;;;;;;;12.82;51.40;99417.98;1737826;81;21115;-53
2022/05/04 05:30:17;;;;;;;1.30;0.70;;;;;;;12.86;51.77;99414.98;1754551;80;22540;-53
2022/05/04 05:32:44;;;;;;;1.12;0.70;;;;;;;12.94;51.29;99414.49;1731336;81;21481;-51
2022/05/04 05:35:11;;;;;;;3.83;0.78;;;;;;;13.01;51.34;99418.56;1738563;80;21100;-51
2022/05/04 05:37:37;;;;;;;3.92;0.80;;;;;;;13.07;51.04;99417.30;1749209;81;21154;-52
2022/05/04 05:40:05;;;;;;;1.25;0.65;;;;;;;13.15;50.97;99421.77;1739305;81;21118;-52
2022/05/04 05:42:32;;;;;;;1.35;0.80;;;;;;;13.22;50.68;99420.40;1765281;80;20889;-51
2022/05/04 05:44:59;;;;;;;3.72;0.70;;;;;;;13.28;50.07;99428.10;1768602;80;20960;-52
2022/05/04 05:47:25;;;;;;;2.17;0.88;;;;;;;13.30;50.13;99428.87;1767248;80;22179;-52
2022/05/04 05:49:51;;;;;;;1.50;1.05;;;;;;;13.34;50.18;99435.84;1767556;80;21278;-51
2022/05/04 05:52:17;;;;;;;1.60;0.70;;;;;;;13.37;50.20;99436.98;1769702;80;20933;-52
2022/05/04 05:54:44;;;;;;;1.98;0.68;;;;;;;13.44;50.38;99437.47;1737016;81;21012;-51
2022/05/04 05:57:10;;;;;;;3.20;1.32;;;;;;;13.51;50.32;99442.86;1752283;80;21472;-50
2022/05/04 05:59:37;;;;;;;2.12;0.82;;;;;;;13.56;49.90;99440.23;1747395;80;22397;-52
2022/05/04 06:02:05;;;;;;;1.95;0.90;;;;;;;13.61;49.39;99441.27;1744279;80;21052;-52
2022/05/04 06:04:31;;;;;;;2.27;1.25;;;;;;;13.64;49.69;99441.95;1750365;80;22089;-52
2022/05/04 06:06:58;;;;;;;3.08;0.70;;;;;;;13.71;49.65;99448.30;1747825;80;21115;-52
2022/05/04 06:09:24;;;;;;;3.33;0.78;;;;;;;13.77;49.50;99449.27;1747570;79;22559;-52
2022/05/04 06:11:54;;;;;;;1.65;0.68;;;;;;;13.83;49.00;99451.56;1748251;80;21118;-52
2022/05/04 06:14:20;;;;;;;2.25;0.68;;;;;;;13.85;49.41;99446.92;1752751;80;21064;-52
2022/05/04 06:16:50;;;;;;;0.70;0.50;;;;;;;13.87;48.87;99454.42;1755319;80;21060;-52
2022/05/04 06:19:15;;;;;;;6.80;0.60;;;;;;;13.88;48.77;99443.99;1768075;80;21067;-52
2022/05/04 06:21:41;;;;;;;1.10;0.55;;;;;;;13.88;48.71;99445.34;1737751;81;21115;-53
2022/05/04 06:24:08;;;;;;;1.22;0.55;;;;;;;13.92;48.80;99445.53;1745981;80;21095;-52
2022/05/04 06:26:34;;;;;;;2.12;0.50;;;;;;;13.96;48.66;99438.93;1742749;81;21498;-53
2022/05/04 06:29:00;;;;;;;2.70;0.68;;;;;;;14.01;48.70;99447.15;1762018;80;21063;-51
2022/05/04 06:34:12;;;;;;;1.52;0.60;;;;;;;14.16;48.42;99445.72;1748258;79;21119;-51
2022/05/04 06:36:41;;;;;;;1.50;0.50;;;;;;;14.23;47.98;99445.20;1737663;81;21136;-52
2022/05/04 06:39:08;;;;;;;1.98;0.60;;;;;;;14.30;47.99;99441.58;1774268;80;21546;-52
2022/05/04 06:41:35;;;;;;;1.02;0.50;;;;;;;14.35;47.08;99440.31;1774179;80;20986;-52
2022/05/04 06:44:03;;;;;;;4.78;0.60;;;;;;;14.37;47.18;99445.11;1775546;80;20964;-53
2022/05/04 06:46:30;;;;;;;2.87;0.70;;;;;;;14.41;46.62;99451.72;1772667;80;20957;-52
2022/05/04 06:48:56;;;;;;;1.10;0.57;;;;;;;14.42;46.69;99446.69;1772218;80;21251;-52
2022/05/04 06:51:22;;;;;;;1.85;0.50;;;;;;;14.44;47.01;99440.69;1775733;80;20902;-52
2022/05/04 06:53:50;;;;;;;1.85;0.50;;;;;;;14.48;46.96;99445.77;1775299;80;20968;-52
2022/05/04 06:56:16;;;;;;;2.00;0.40;;;;;;;14.54;47.19;99446.72;1771528;80;21088;-52
2022/05/04 06:58:44;;;;;;;0.42;0.35;;;;;;;14.62;46.37;99448.90;1769699;80;21036;-53
2022/05/04 07:01:12;;;;;;;2.80;0.50;;;;;;;14.68;46.29;99451.17;1769853;80;21117;-52
2022/05/04 07:03:38;;;;;;;2.85;0.37;;;;;;;14.74;45.85;99454.80;1774638;79;20921;-53
2022/05/04 07:06:06;;;;;;;3.60;0.40;;;;;;;14.74;44.97;99456.15;1769450;80;21016;-51
2022/05/04 07:08:33;;;;;;;1.80;0.40;;;;;;;14.71;44.63;99459.97;1772582;80;21368;-52
2022/05/04 07:11:00;;;;;;;0.90;0.50;;;;;;;14.66;43.98;99455.33;1776108;80;20965;-53
2022/05/04 07:13:27;;;;;;;0.93;0.40;;;;;;;14.61;44.47;99461.57;1768410;80;21043;-53
2022/05/04 07:15:55;;;;;;;1.17;0.45;;;;;;;14.56;44.51;99469.61;1772380;80;20940;-55
2022/05/04 07:18:21;;;;;;;2.45;0.47;;;;;;;14.52;45.07;99468.10;1772969;80;20944;-55
2022/05/04 07:20:48;;;;;;;0.90;0.47;;;;;;;14.54;45.45;99474.30;1768145;80;21430;-53
2022/05/04 07:23:15;;;;;;;1.12;0.47;;;;;;;14.60;45.00;99473.86;1764842;80;21119;-55
2022/05/04 07:25:41;;;;;;;1.20;0.40;;;;;;;14.67;44.89;99482.80;1766434;80;21298;-52
2022/05/04 07:28:08;;;;;;;0.55;0.40;;;;;;;14.75;44.61;99475.02;1769086;80;21526;-53
2022/05/04 07:30:35;;;;;;;2.10;0.50;;;;;;;14.84;44.62;99473.50;1770770;80;21549;-52
2022/05/04 07:33:02;;;;;;;0.90;0.37;;;;;;;14.89;44.26;99474.03;1769233;80;21048;-54
2022/05/04 07:35:28;;;;;;;2.40;0.45;;;;;;;14.95;44.27;99484.95;1770556;80;21013;-55
2022/05/04 07:37:55;;;;;;;2.33;0.50;;;;;;;14.99;42.93;99479.20;1766197;80;21743;-55
2022/05/04 07:43:06;;;;;;;0.65;0.37;;;;;;;15.06;42.72;99487.27;1762500;80;21017;-55
2022/05/04 07:45:34;;;;;;;0.30;0.23;;;;;;;15.09;42.75;99484.35;1759553;80;21116;-54
2022/05/04 07:48:00;;;;;;;1.52;0.30;;;;;;;15.15;43.00;99480.33;1764194;80;21048;-55
2022/05/04 07:50:28;;;;;;;0.70;0.30;;;;;;;15.19;41.37;99481.86;1767637;80;21088;-53
2022/05/04 07:52:55;;;;;;;0.50;0.30;;;;;;;15.23;42.01;99497.40;1762089;80;21096;-53
2022/05/04 07:55:21;;;;;;;1.40;0.40;;;;;;;15.25;40.66;99485.97;1763401;80;22212;-54
2022/05/04 07:57:49;;;;;;;2.40;0.40;;;;;;;15.27;41.57;99488.08;1759885;80;22242;-53
2022/05/04 08:05:46;;;;;;;3.95;0.50;;;;;;;15.38;42.22;99479.56;1761605;80;21080;-52
2022/05/04 08:08:12;;;;;;;1.17;0.40;;;;;;;15.48;42.01;99494.17;1761322;80;21143;-52
2022/05/04 08:10:40;;;;;;;3.12;0.50;;;;;;;15.54;42.47;99489.33;1763741;80;21119;-52
2022/05/04 08:13:07;;;;;;;0.82;0.42;;;;;;;15.58;41.95;99488.98;1763588;80;21053;-53
2022/05/04 08:15:35;;;;;;;0.80;0.40;;;;;;;15.67;41.88;99496.94;1760168;80;21554;-51
2022/05/04 08:18:02;;;;;;;0.65;0.30;;;;;;;15.70;41.88;99492.17;1757496;80;21521;-52
2022/05/04 08:20:29;;;;;;;0.60;0.30;;;;;;;15.75;41.10;99498.60;1761610;80;21029;-52
2022/05/04 08:22:59;;;;;;;1.15;0.30;;;;;;;15.81;40.39;99497.69;1767008;80;21045;-52
2022/05/04 08:25:25;;;;;;;2.98;0.30;;;;;;;15.86;39.48;99502.76;1762467;80;20949;-53
2022/05/04 08:27:52;;;;;;;1.32;0.37;;;;;;;15.87;39.29;99495.00;1765762;80;21141;-52
2022/05/04 08:32:58;;;;;;;0.47;0.30;;;;;;;15.94;37.91;99500.34;1789145;79;22634;-52
2022/05/04 08:35:25;;;;;;;1.32;0.20;;;;;;;15.91;38.77;99507.87;1758660;80;21034;-52
2022/05/04 08:37:51;;;;;;;2.62;0.20;;;;;;;15.91;38.77;99507.87;1766853;80;21074;-53
2022/05/04 08:40:17;;;;;;;0.40;0.17;;;;;;;15.98;38.12;99502.36;1756678;80;20962;-52
2022/05/04 08:42:45;;;;;;;7.78;0.20;;;;;;;15.98;38.12;99502.36;1754558;80;20978;-52
2022/05/04 08:45:13;;;;;;;0.62;0.28;;;;;;;16.02;38.60;99504.71;1762993;80;20954;-52
2022/05/04 08:47:40;;;;;;;0.85;0.20;;;;;;;16.01;38.63;99505.69;1760331;80;20969;-51
2022/05/04 08:50:13;;;;;;;0.30;0.20;;;;;;;16.01;38.86;99504.33;1757782;80;21384;-53
2022/05/04 08:52:44;;;;;;;2.05;0.75;;;;;;;16.01;38.86;99504.33;1763840;80;20903;-52
2022/05/04 08:55:10;;;;;;;0.68;0.30;;;;;;;16.05;38.48;99514.48;1754981;80;21017;-53
2022/05/04 08:57:39;;;;;;;0.20;0.20;;;;;;;16.04;39.03;99519.53;1758688;79;20954;-53
2022/05/04 09:00:10;;;;;;;0.60;0.20;;;;;;;16.04;38.06;99518.17;1751191;80;21002;-52
2022/05/04 09:02:35;;;;;;;0.85;0.30;;;;;;;15.96;37.79;99521.47;1754523;80;22031;-53
2022/05/04 09:05:14;;;;;;;2.05;0.23;;;;;;;15.85;37.93;99524.96;1760528;80;21558;-52
2022/05/04 09:07:40;;;;;;;2.33;0.20;;;;;;;15.72;37.97;99521.42;1752583;80;20926;-53
2022/05/04 09:10:09;;;;;;;0.62;0.20;;;;;;;15.54;38.23;99523.24;1751372;80;21053;-54
2022/05/04 09:12:37;;;;;;;1.62;0.20;;;;;;;15.54;38.23;99523.24;1723364;80;21034;-52
2022/05/04 09:15:06;;;;;;;0.50;0.30;;;;;;;15.49;38.57;99533.02;1748976;80;21316;-52
2022/05/04 09:17:33;;;;;;;3.37;0.30;;;;;;;15.43;38.47;99530.27;1721660;80;21314;-53
2022/05/04 09:22:50;;;;;;;0.40;0.30;;;;;;;15.42;39.09;99522.23;1685229;83;21144;-53
2022/05/04 09:25:18;;;;;;;0.90;0.20;;;;;;;15.57;38.16;99540.14;1683043;83;21104;-53
2022/05/04 09:27:47;;;;;;;0.57;0.20;;;;;;;15.61;38.26;99534.89;1713588;80;22391;-53
2022/05/04 09:30:14;;;;;;;1.85;0.30;;;;;;;15.63;37.65;99536.14;1757344;80;20957;-53
2022/05/04 09:32:41;;;;;;;1.85;0.30;;;;;;;15.62;37.98;99536.63;1748633;80;20876;-53
2022/05/04 09:35:15;;;;;;;2.15;0.40;;;;;;;15.61;38.42;99541.67;1742944;80;21078;-53
2022/05/04 09:45:57;;;;;;;1.05;0.30;;;;;;;15.81;38.36;99518.04;1751821;80;20907;-53
2022/05/04 09:48:31;;;;;;;0.78;0.20;;;;;;;15.81;38.36;99518.04;1744586;80;20967;-54
2022/05/04 09:51:07;;;;;;;0.40;0.20;;;;;;;15.87;37.58;99522.14;1746473;80;20950;-54
2022/05/04 09:53:34;;;;;;;0.42;0.20;;;;;;;15.90;37.72;99524.64;1743514;80;21099;-52
2022/05/04 09:56:01;;;;;;;0.62;0.23;;;;;;;15.92;37.22;99527.22;1749433;80;20962;-51
2022/05/04 09:58:29;;;;;;;0.82;0.20;;;;;;;15.92;36.99;99524.50;1746550;80;20867;-52
2022/05/04 10:00:55;;;;;;;1.62;0.20;;;;;;;15.93;36.23;99520.81;1742213;80;20927;-53
2022/05/04 10:03:22;;;;;;;0.40;0.30;;;;;;;15.94;36.59;99518.47;1742953;80;20982;-53
2022/05/04 10:05:49;;;;;;;2.05;0.30;;;;;;;15.96;36.50;99515.16;1739736;80;22694;-52
2022/05/04 10:08:16;;;;;;;0.70;0.30;;;;;;;16.00;36.44;99519.37;1750796;80;20914;-53
2022/05/04 10:10:43;;;;;;;2.80;0.20;;;;;;;16.00;37.13;99511.23;1743658;80;21303;-54
2022/05/04 10:13:09;;;;;;;1.00;0.28;;;;;;;16.06;37.48;99527.95;1750512;80;21497;-51
2022/05/04 10:15:40;;;;;;;0.55;0.30;;;;;;;16.10;34.99;99531.28;1742440;80;21409;-51
2022/05/04 10:18:10;;;;;;;0.68;0.30;;;;;;;16.08;35.04;99528.68;1736607;80;22079;-52
2022/05/04 10:20:56;;;;;;;4.00;0.30;;;;;;;16.02;34.74;99521.48;1751254;80;20943;-52
2022/05/04 10:23:25;;;;;;;2.02;0.30;;;;;;;15.98;35.23;99525.43;1719825;80;20879;-52
2022/05/04 10:25:52;;;;;;;3.75;0.28;;;;;;;15.99;35.36;99521.73;1740694;80;20886;-54
2022/05/04 10:28:18;;;;;;;2.87;0.72;;;;;;;16.05;35.55;99523.50;1748097;80;20930;-53
2022/05/04 10:30:53;;;;;;;1.77;0.20;;;;;;;16.11;35.64;99514.89;1746342;80;21088;-53
2022/05/04 10:33:33;;;;;;;0.70;0.40;;;;;;;16.19;35.84;99526.53;1719254;80;21504;-53
2022/05/04 10:36:16;;;;;;;1.52;0.33;;;;;;;16.15;35.87;99525.05;1738489;80;21068;-53
2022/05/04 10:38:43;;;;;;;0.60;0.30;;;;;;;16.10;36.95;99525.37;1736003;80;21077;-53
2022/05/04 10:41:10;;;;;;;0.65;0.30;;;;;;;16.04;36.95;99527.67;1740105;80;21092;-52
2022/05/04 10:43:47;;;;;;;7.72;0.45;;;;;;;16.02;36.77;99530.99;1740967;80;21148;-53
2022/05/04 10:46:20;;;;;;;2.60;0.60;;;;;;;16.01;37.33;99530.61;1744793;80;20887;-52
2022/05/04 10:49:02;;;;;;;3.30;0.30;;;;;;;15.98;37.04;99522.72;1743703;80;21045;-52
2022/05/04 10:51:37;;;;;;;0.85;0.30;;;;;;;15.94;36.89;99524.77;1746122;80;21057;-53
2022/05/04 10:54:17;;;;;;;4.58;0.40;;;;;;;15.94;37.49;99523.91;1742162;80;21064;-53
2022/05/04 10:56:48;;;;;;;1.85;0.50;;;;;;;15.98;37.06;99532.22;1745822;80;21285;-54
2022/05/04 10:59:34;;;;;;;0.80;0.30;;;;;;;16.02;36.04;99522.36;1743007;80;21097;-53
2022/05/04 11:02:05;;;;;;;0.55;0.30;;;;;;;16.02;36.04;99522.36;1736794;80;21072;-53
2022/05/04 11:04:33;;;;;;;4.22;0.30;;;;;;;16.25;35.23;99539.64;1743976;80;20966;-54
2022/05/04 11:07:07;;;;;;;0.88;0.23;;;;;;;16.25;35.23;99539.64;1743474;80;21033;-55
2022/05/04 11:09:42;;;;;;;0.60;0.30;;;;;;;16.29;36.36;99528.94;1745065;80;21148;-53
2022/05/04 11:12:13;;;;;;;0.50;0.20;;;;;;;16.22;35.03;99529.03;1743045;80;20899;-52
2022/05/04 11:14:39;;;;;;;1.07;0.33;;;;;;;16.22;35.03;99529.03;1713577;80;21060;-53
2022/05/04 11:17:14;;;;;;;0.40;0.20;;;;;;;16.19;35.93;99527.89;1740909;80;21472;-51
2022/05/04 11:19:48;;;;;;;1.50;0.25;;;;;;;16.22;35.31;99533.10;1739367;80;21069;-51
2022/05/04 11:22:16;;;;;;;5.15;0.30;;;;;;;16.26;34.44;99519.16;1739280;80;22248;-53
2022/05/04 11:24:43;;;;;;;1.00;0.30;;;;;;;16.26;34.44;99506.94;1741222;80;20927;-52
2022/05/04 11:27:11;;;;;;;0.60;0.30;;;;;;;16.31;35.64;99514.77;1743479;80;21065;-53
2022/05/04 11:29:38;;;;;;;1.00;0.40;;;;;;;16.37;34.84;99515.64;1734977;80;21120;-52
2022/05/04 11:32:05;;;;;;;1.00;0.47;;;;;;;16.39;35.28;99510.97;1745809;80;21409;-52
2022/05/04 11:34:35;;;;;;;2.40;0.40;;;;;;;16.36;34.42;99512.55;1750113;81;21041;-53
2022/05/04 11:37:07;;;;;;;0.80;0.40;;;;;;;16.27;34.33;99528.18;1738165;81;20963;-52
2022/05/04 11:39:36;;;;;;;1.35;0.53;;;;;;;16.17;34.76;99514.91;1737553;81;21463;-53
2022/05/04 11:42:03;;;;;;;0.70;0.30;;;;;;;16.10;34.25;99532.64;1740528;81;21261;-52
2022/05/04 11:44:30;;;;;;;0.40;0.20;;;;;;;15.98;34.65;99517.28;1736405;81;21160;-51
2022/05/04 11:46:58;;;;;;;0.98;0.20;;;;;;;15.98;34.65;99517.28;1739513;81;22479;-57
2022/05/04 11:49:30;;;;;;;0.72;0.20;;;;;;;15.99;34.54;99523.09;1745668;81;21401;-53
2022/05/04 11:51:58;;;;;;;2.17;0.20;;;;;;;16.04;34.14;99524.97;1701925;81;21070;-52
2022/05/04 11:54:25;;;;;;;4.62;0.30;;;;;;;16.18;34.45;99519.36;1734685;81;21461;-52
2022/05/04 11:56:51;;;;;;;2.25;0.30;;;;;;;16.18;34.45;99519.36;1727310;81;21213;-52
2022/05/04 11:59:18;;;;;;;1.05;0.30;;;;;;;16.25;34.08;99509.77;1731359;81;21211;-54
2022/05/04 12:01:44;;;;;;;2.15;0.20;;;;;;;16.26;34.16;99509.66;1735649;81;21498;-52
2022/05/04 12:04:12;;;;;;;1.35;0.23;;;;;;;16.38;35.04;99520.09;1736766;81;21081;-52
2022/05/04 12:06:39;;;;;;;1.10;0.28;;;;;;;16.47;34.36;99512.61;1738024;81;21171;-52
2022/05/04 12:09:05;;;;;;;0.70;0.30;;;;;;;16.58;34.00;99511.80;1733853;81;21431;-52
2022/05/04 12:11:32;;;;;;;0.50;0.30;;;;;;;16.70;31.95;99511.36;1729816;81;21131;-53